Merrifield, Virginia
Current Conditions -  °F | °C
As of 8:52 AM on Friday 31 Oct 2014 (Local Time) from KDCA Reporting Station
Broken Clouds Broken Clouds  
Wind Chill: 50°   Ceiling: 6500
Heat Index: 50°   Visibility: 10mi
Dew Point: 39°   Wind: 5mph
Humidity: 66%   Direction: 40°NE
Pressure: 30.01"   Gusts: NA
Location:  38.87°N, 77.23°W
Report Text: KDCA 311252Z 04004KT 10SM BKN065 BKN230 10/04 A3001 RMK AO2 SLP161 T01000039
Loading
Personal Weather Stations






























Interactive Weather Map
Tropical Storm Tracking
New forecast layout! Learn more

10-Day Weather Forecast

Advertisements
Track Severe Weather on mobile